sensor_id;sensor_type;location;lat;lon;timestamp;P1;durP1;ratioP1;P2;durP2;ratioP2
58878;SDS011;44660;42.664;23.266;2023-03-21T00:01:11;17.95;;;9.90;;
58878;SDS011;44660;42.664;23.266;2023-03-21T00:03:37;17.00;;;9.07;;
58878;SDS011;44660;42.664;23.266;2023-03-21T00:06:04;20.25;;;10.07;;
58878;SDS011;44660;42.664;23.266;2023-03-21T00:08:30;21.02;;;9.48;;
58878;SDS011;44660;42.664;23.266;2023-03-21T00:10:56;21.20;;;9.98;;
58878;SDS011;44660;42.664;23.266;2023-03-21T00:13:23;17.63;;;9.25;;
58878;SDS011;44660;42.664;23.266;2023-03-21T00:15:50;20.05;;;10.18;;
58878;SDS011;44660;42.664;23.266;2023-03-21T00:18:21;19.08;;;10.23;;
58878;SDS011;44660;42.664;23.266;2023-03-21T00:21:22;22.95;;;10.50;;
58878;SDS011;44660;42.664;23.266;2023-03-21T00:23:42;20.33;;;9.98;;
58878;SDS011;44660;42.664;23.266;2023-03-21T00:26:08;16.20;;;9.00;;
58878;SDS011;44660;42.664;23.266;2023-03-21T00:28:37;17.85;;;9.63;;
58878;SDS011;44660;42.664;23.266;2023-03-21T00:31:04;22.02;;;10.63;;
58878;SDS011;44660;42.664;23.266;2023-03-21T00:33:30;18.00;;;8.95;;
58878;SDS011;44660;42.664;23.266;2023-03-21T00:35:56;18.85;;;8.60;;
58878;SDS011;44660;42.664;23.266;2023-03-21T00:38:22;15.93;;;8.02;;
58878;SDS011;44660;42.664;23.266;2023-03-21T00:40:48;17.20;;;8.45;;
58878;SDS011;44660;42.664;23.266;2023-03-21T00:43:14;17.27;;;8.38;;
58878;SDS011;44660;42.664;23.266;2023-03-21T00:45:43;18.30;;;7.60;;
58878;SDS011;44660;42.664;23.266;2023-03-21T00:48:10;16.33;;;8.00;;
58878;SDS011;44660;42.664;23.266;2023-03-21T00:50:36;18.10;;;8.35;;
58878;SDS011;44660;42.664;23.266;2023-03-21T00:53:03;17.27;;;8.90;;
58878;SDS011;44660;42.664;23.266;2023-03-21T00:55:28;20.60;;;9.60;;
58878;SDS011;44660;42.664;23.266;2023-03-21T00:57:54;18.55;;;9.50;;
58878;SDS011;44660;42.664;23.266;2023-03-21T01:00:20;21.48;;;9.60;;
58878;SDS011;44660;42.664;23.266;2023-03-21T01:02:46;19.83;;;9.25;;
58878;SDS011;44660;42.664;23.266;2023-03-21T01:05:24;23.88;;;9.68;;
58878;SDS011;44660;42.664;23.266;2023-03-21T01:08:13;15.90;;;8.90;;
58878;SDS011;44660;42.664;23.266;2023-03-21T01:10:40;18.58;;;8.95;;
58878;SDS011;44660;42.664;23.266;2023-03-21T01:13:08;18.42;;;9.32;;
58878;SDS011;44660;42.664;23.266;2023-03-21T01:15:35;15.13;;;8.65;;
58878;SDS011;44660;42.664;23.266;2023-03-21T01:18:01;20.15;;;8.68;;
58878;SDS011;44660;42.664;23.266;2023-03-21T01:20:27;16.80;;;8.63;;
58878;SDS011;44660;42.664;23.266;2023-03-21T01:22:53;16.95;;;8.48;;
58878;SDS011;44660;42.664;23.266;2023-03-21T01:25:18;18.58;;;8.77;;
58878;SDS011;44660;42.664;23.266;2023-03-21T01:27:44;16.77;;;8.43;;
58878;SDS011;44660;42.664;23.266;2023-03-21T01:30:09;16.05;;;9.27;;
58878;SDS011;44660;42.664;23.266;2023-03-21T01:32:35;19.08;;;9.30;;
58878;SDS011;44660;42.664;23.266;2023-03-21T01:35:01;17.30;;;9.45;;
58878;SDS011;44660;42.664;23.266;2023-03-21T01:37:26;19.77;;;9.15;;
58878;SDS011;44660;42.664;23.266;2023-03-21T01:39:51;21.55;;;9.32;;
58878;SDS011;44660;42.664;23.266;2023-03-21T01:42:17;18.60;;;9.05;;
58878;SDS011;44660;42.664;23.266;2023-03-21T01:47:54;15.35;;;8.63;;
58878;SDS011;44660;42.664;23.266;2023-03-21T01:50:19;18.58;;;9.27;;
58878;SDS011;44660;42.664;23.266;2023-03-21T01:52:48;17.90;;;9.23;;
58878;SDS011;44660;42.664;23.266;2023-03-21T01:55:14;18.05;;;8.70;;
58878;SDS011;44660;42.664;23.266;2023-03-21T01:57:44;18.77;;;8.95;;
58878;SDS011;44660;42.664;23.266;2023-03-21T02:00:13;15.23;;;8.90;;
58878;SDS011;44660;42.664;23.266;2023-03-21T02:02:41;12.60;;;7.88;;
58878;SDS011;44660;42.664;23.266;2023-03-21T02:05:18;16.92;;;8.60;;
58878;SDS011;44660;42.664;23.266;2023-03-21T02:07:51;16.98;;;8.38;;
58878;SDS011;44660;42.664;23.266;2023-03-21T02:10:17;15.43;;;7.65;;
58878;SDS011;44660;42.664;23.266;2023-03-21T02:12:43;10.80;;;7.22;;
58878;SDS011;44660;42.664;23.266;2023-03-21T02:15:09;16.70;;;7.28;;
58878;SDS011;44660;42.664;23.266;2023-03-21T02:20:27;16.00;;;7.13;;
58878;SDS011;44660;42.664;23.266;2023-03-21T02:29:01;15.35;;;6.90;;
58878;SDS011;44660;42.664;23.266;2023-03-21T02:39:30;14.25;;;6.97;;
58878;SDS011;44660;42.664;23.266;2023-03-21T02:44:32;85.07;;;45.92;;
58878;SDS011;44660;42.664;23.266;2023-03-21T02:49:43;20.52;;;10.27;;
58878;SDS011;44660;42.664;23.266;2023-03-21T02:52:15;18.88;;;8.55;;
58878;SDS011;44660;42.664;23.266;2023-03-21T02:54:44;14.13;;;7.45;;
58878;SDS011;44660;42.664;23.266;2023-03-21T02:57:12;12.63;;;7.07;;
58878;SDS011;44660;42.664;23.266;2023-03-21T02:59:40;13.65;;;7.35;;
58878;SDS011;44660;42.664;23.266;2023-03-21T03:02:06;16.70;;;6.78;;
58878;SDS011;44660;42.664;23.266;2023-03-21T03:04:32;13.07;;;7.03;;
58878;SDS011;44660;42.664;23.266;2023-03-21T03:11:56;17.95;;;7.57;;
58878;SDS011;44660;42.664;23.266;2023-03-21T03:14:44;12.25;;;7.28;;
58878;SDS011;44660;42.664;23.266;2023-03-21T03:25:34;13.73;;;6.90;;
58878;SDS011;44660;42.664;23.266;2023-03-21T03:28:07;13.45;;;6.75;;
58878;SDS011;44660;42.664;23.266;2023-03-21T03:30:34;13.68;;;6.82;;
58878;SDS011;44660;42.664;23.266;2023-03-21T03:33:01;15.93;;;8.00;;
58878;SDS011;44660;42.664;23.266;2023-03-21T03:35:30;14.35;;;6.85;;
58878;SDS011;44660;42.664;23.266;2023-03-21T03:37:57;13.95;;;5.82;;
58878;SDS011;44660;42.664;23.266;2023-03-21T03:40:28;13.35;;;6.40;;
58878;SDS011;44660;42.664;23.266;2023-03-21T03:43:00;11.82;;;6.32;;
58878;SDS011;44660;42.664;23.266;2023-03-21T03:45:33;10.38;;;5.72;;
58878;SDS011;44660;42.664;23.266;2023-03-21T03:48:06;10.55;;;5.50;;
58878;SDS011;44660;42.664;23.266;2023-03-21T03:53:16;16.42;;;6.35;;
58878;SDS011;44660;42.664;23.266;2023-03-21T03:55:46;15.15;;;5.88;;
58878;SDS011;44660;42.664;23.266;2023-03-21T03:58:17;9.85;;;5.65;;
58878;SDS011;44660;42.664;23.266;2023-03-21T04:00:44;10.90;;;6.15;;
58878;SDS011;44660;42.664;23.266;2023-03-21T04:03:10;13.55;;;6.07;;
58878;SDS011;44660;42.664;23.266;2023-03-21T04:05:36;12.18;;;5.85;;
58878;SDS011;44660;42.664;23.266;2023-03-21T04:08:02;10.50;;;5.85;;
58878;SDS011;44660;42.664;23.266;2023-03-21T04:10:27;16.48;;;6.43;;
58878;SDS011;44660;42.664;23.266;2023-03-21T04:12:53;11.77;;;6.18;;
58878;SDS011;44660;42.664;23.266;2023-03-21T04:15:18;13.07;;;6.82;;
58878;SDS011;44660;42.664;23.266;2023-03-21T04:17:44;13.45;;;6.60;;
58878;SDS011;44660;42.664;23.266;2023-03-21T04:20:10;13.88;;;6.57;;
58878;SDS011;44660;42.664;23.266;2023-03-21T04:22:35;12.50;;;6.20;;
58878;SDS011;44660;42.664;23.266;2023-03-21T04:25:02;14.98;;;7.85;;
58878;SDS011;44660;42.664;23.266;2023-03-21T04:27:29;14.15;;;7.50;;
58878;SDS011;44660;42.664;23.266;2023-03-21T04:29:55;17.42;;;7.68;;
58878;SDS011;44660;42.664;23.266;2023-03-21T04:32:20;17.58;;;7.85;;
58878;SDS011;44660;42.664;23.266;2023-03-21T04:34:48;18.98;;;8.40;;
58878;SDS011;44660;42.664;23.266;2023-03-21T04:37:17;17.25;;;8.70;;
58878;SDS011;44660;42.664;23.266;2023-03-21T04:39:43;14.38;;;8.05;;
58878;SDS011;44660;42.664;23.266;2023-03-21T04:42:11;15.63;;;8.63;;
58878;SDS011;44660;42.664;23.266;2023-03-21T04:44:40;21.63;;;9.13;;
58878;SDS011;44660;42.664;23.266;2023-03-21T04:47:06;20.02;;;9.20;;
58878;SDS011;44660;42.664;23.266;2023-03-21T04:49:31;19.15;;;9.90;;
58878;SDS011;44660;42.664;23.266;2023-03-21T04:51:57;16.45;;;8.07;;
58878;SDS011;44660;42.664;23.266;2023-03-21T04:54:23;18.38;;;7.95;;
58878;SDS011;44660;42.664;23.266;2023-03-21T04:56:48;18.95;;;7.63;;
58878;SDS011;44660;42.664;23.266;2023-03-21T04:59:16;18.25;;;7.60;;
58878;SDS011;44660;42.664;23.266;2023-03-21T05:01:42;19.48;;;8.35;;
58878;SDS011;44660;42.664;23.266;2023-03-21T05:04:09;19.02;;;7.80;;
58878;SDS011;44660;42.664;23.266;2023-03-21T05:06:36;20.17;;;8.15;;
58878;SDS011;44660;42.664;23.266;2023-03-21T05:09:02;18.90;;;8.68;;
58878;SDS011;44660;42.664;23.266;2023-03-21T05:11:29;79.88;;;40.75;;
58878;SDS011;44660;42.664;23.266;2023-03-21T05:13:56;104.60;;;48.03;;
58878;SDS011;44660;42.664;23.266;2023-03-21T05:16:23;90.03;;;33.10;;
58878;SDS011;44660;42.664;23.266;2023-03-21T05:18:51;61.38;;;21.33;;
58878;SDS011;44660;42.664;23.266;2023-03-21T05:21:19;42.15;;;13.93;;
58878;SDS011;44660;42.664;23.266;2023-03-21T05:23:45;35.40;;;13.00;;
58878;SDS011;44660;42.664;23.266;2023-03-21T05:26:18;32.83;;;13.70;;
58878;SDS011;44660;42.664;23.266;2023-03-21T05:28:45;49.25;;;18.65;;
58878;SDS011;44660;42.664;23.266;2023-03-21T05:31:12;31.13;;;13.93;;
58878;SDS011;44660;42.664;23.266;2023-03-21T05:33:41;28.48;;;12.18;;
58878;SDS011;44660;42.664;23.266;2023-03-21T05:36:07;26.58;;;10.98;;
58878;SDS011;44660;42.664;23.266;2023-03-21T05:38:33;28.17;;;11.77;;
58878;SDS011;44660;42.664;23.266;2023-03-21T05:40:58;22.23;;;10.80;;
58878;SDS011;44660;42.664;23.266;2023-03-21T05:43:24;31.80;;;14.75;;
58878;SDS011;44660;42.664;23.266;2023-03-21T05:45:50;36.78;;;16.70;;
58878;SDS011;44660;42.664;23.266;2023-03-21T05:48:16;33.65;;;16.40;;
58878;SDS011;44660;42.664;23.266;2023-03-21T05:50:42;35.17;;;14.65;;
58878;SDS011;44660;42.664;23.266;2023-03-21T05:53:07;47.30;;;15.52;;
58878;SDS011;44660;42.664;23.266;2023-03-21T05:55:33;41.30;;;14.43;;
58878;SDS011;44660;42.664;23.266;2023-03-21T05:57:58;38.42;;;14.63;;
58878;SDS011;44660;42.664;23.266;2023-03-21T06:00:24;34.80;;;15.55;;
58878;SDS011;44660;42.664;23.266;2023-03-21T06:02:50;46.92;;;14.90;;
58878;SDS011;44660;42.664;23.266;2023-03-21T06:05:15;43.45;;;15.95;;
58878;SDS011;44660;42.664;23.266;2023-03-21T06:07:41;51.88;;;16.20;;
58878;SDS011;44660;42.664;23.266;2023-03-21T06:10:06;41.00;;;15.60;;
58878;SDS011;44660;42.664;23.266;2023-03-21T06:12:35;44.50;;;16.67;;
58878;SDS011;44660;42.664;23.266;2023-03-21T06:15:01;33.65;;;15.88;;
58878;SDS011;44660;42.664;23.266;2023-03-21T06:17:29;37.60;;;15.20;;
58878;SDS011;44660;42.664;23.266;2023-03-21T06:19:55;39.10;;;14.95;;
58878;SDS011;44660;42.664;23.266;2023-03-21T06:22:20;39.65;;;14.30;;
58878;SDS011;44660;42.664;23.266;2023-03-21T06:24:46;31.65;;;14.68;;
58878;SDS011;44660;42.664;23.266;2023-03-21T06:27:12;33.58;;;12.43;;
58878;SDS011;44660;42.664;23.266;2023-03-21T06:29:37;25.02;;;12.20;;
58878;SDS011;44660;42.664;23.266;2023-03-21T06:32:03;30.40;;;11.85;;
58878;SDS011;44660;42.664;23.266;2023-03-21T06:34:29;24.90;;;10.70;;
58878;SDS011;44660;42.664;23.266;2023-03-21T06:36:54;28.23;;;11.00;;
58878;SDS011;44660;42.664;23.266;2023-03-21T06:39:20;29.65;;;11.82;;
58878;SDS011;44660;42.664;23.266;2023-03-21T06:41:45;39.45;;;13.65;;
58878;SDS011;44660;42.664;23.266;2023-03-21T06:44:11;31.42;;;14.35;;
58878;SDS011;44660;42.664;23.266;2023-03-21T06:46:36;31.45;;;12.43;;
58878;SDS011;44660;42.664;23.266;2023-03-21T06:49:02;35.55;;;12.40;;
58878;SDS011;44660;42.664;23.266;2023-03-21T06:51:28;28.25;;;10.73;;
58878;SDS011;44660;42.664;23.266;2023-03-21T06:53:53;66.90;;;31.33;;
58878;SDS011;44660;42.664;23.266;2023-03-21T06:56:18;40.10;;;21.02;;
58878;SDS011;44660;42.664;23.266;2023-03-21T06:58:44;79.63;;;40.50;;
58878;SDS011;44660;42.664;23.266;2023-03-21T07:01:10;49.83;;;24.20;;
58878;SDS011;44660;42.664;23.266;2023-03-21T07:03:36;35.10;;;14.95;;
58878;SDS011;44660;42.664;23.266;2023-03-21T07:06:06;24.27;;;11.52;;
58878;SDS011;44660;42.664;23.266;2023-03-21T07:08:36;19.05;;;9.50;;
58878;SDS011;44660;42.664;23.266;2023-03-21T07:11:02;21.27;;;8.52;;
58878;SDS011;44660;42.664;23.266;2023-03-21T07:13:29;16.73;;;8.82;;
58878;SDS011;44660;42.664;23.266;2023-03-21T07:15:55;19.80;;;7.97;;
58878;SDS011;44660;42.664;23.266;2023-03-21T07:18:21;14.88;;;6.80;;
58878;SDS011;44660;42.664;23.266;2023-03-21T07:20:47;15.68;;;6.97;;
58878;SDS011;44660;42.664;23.266;2023-03-21T07:25:43;15.52;;;6.85;;
58878;SDS011;44660;42.664;23.266;2023-03-21T07:28:08;21.70;;;7.25;;
58878;SDS011;44660;42.664;23.266;2023-03-21T07:30:34;13.52;;;7.60;;
58878;SDS011;44660;42.664;23.266;2023-03-21T07:33:00;21.75;;;10.73;;
58878;SDS011;44660;42.664;23.266;2023-03-21T07:35:26;31.13;;;14.23;;
58878;SDS011;44660;42.664;23.266;2023-03-21T07:37:52;31.13;;;14.95;;
58878;SDS011;44660;42.664;23.266;2023-03-21T07:40:17;29.25;;;15.30;;
58878;SDS011;44660;42.664;23.266;2023-03-21T07:42:43;28.02;;;14.00;;
58878;SDS011;44660;42.664;23.266;2023-03-21T07:45:09;24.98;;;13.82;;
58878;SDS011;44660;42.664;23.266;2023-03-21T07:47:39;28.38;;;13.88;;
58878;SDS011;44660;42.664;23.266;2023-03-21T07:50:05;25.58;;;12.07;;
58878;SDS011;44660;42.664;23.266;2023-03-21T07:52:31;29.50;;;12.55;;
58878;SDS011;44660;42.664;23.266;2023-03-21T07:54:56;23.02;;;11.95;;
58878;SDS011;44660;42.664;23.266;2023-03-21T07:57:21;23.92;;;12.13;;
58878;SDS011;44660;42.664;23.266;2023-03-21T07:59:47;24.20;;;11.60;;
58878;SDS011;44660;42.664;23.266;2023-03-21T08:02:16;29.77;;;12.27;;
58878;SDS011;44660;42.664;23.266;2023-03-21T08:04:42;25.08;;;12.77;;
58878;SDS011;44660;42.664;23.266;2023-03-21T08:07:08;22.77;;;12.38;;
58878;SDS011;44660;42.664;23.266;2023-03-21T08:09:34;30.23;;;13.05;;
58878;SDS011;44660;42.664;23.266;2023-03-21T08:12:00;34.58;;;12.70;;
58878;SDS011;44660;42.664;23.266;2023-03-21T08:14:26;27.13;;;11.98;;
58878;SDS011;44660;42.664;23.266;2023-03-21T08:16:51;39.03;;;17.08;;
58878;SDS011;44660;42.664;23.266;2023-03-21T08:19:17;66.88;;;41.03;;
58878;SDS011;44660;42.664;23.266;2023-03-21T08:21:44;26.98;;;13.15;;
58878;SDS011;44660;42.664;23.266;2023-03-21T08:24:10;17.83;;;10.15;;
58878;SDS011;44660;42.664;23.266;2023-03-21T08:26:35;16.80;;;8.55;;
58878;SDS011;44660;42.664;23.266;2023-03-21T08:29:01;16.92;;;8.20;;
58878;SDS011;44660;42.664;23.266;2023-03-21T08:31:26;17.80;;;9.13;;
58878;SDS011;44660;42.664;23.266;2023-03-21T08:33:52;19.00;;;9.18;;
58878;SDS011;44660;42.664;23.266;2023-03-21T08:36:20;17.15;;;7.88;;
58878;SDS011;44660;42.664;23.266;2023-03-21T08:38:46;14.15;;;7.35;;
58878;SDS011;44660;42.664;23.266;2023-03-21T08:41:13;14.60;;;7.75;;
58878;SDS011;44660;42.664;23.266;2023-03-21T08:43:39;13.00;;;7.05;;
58878;SDS011;44660;42.664;23.266;2023-03-21T08:46:04;19.55;;;7.75;;
58878;SDS011;44660;42.664;23.266;2023-03-21T08:48:30;13.57;;;7.28;;
58878;SDS011;44660;42.664;23.266;2023-03-21T08:50:58;17.70;;;8.82;;
58878;SDS011;44660;42.664;23.266;2023-03-21T08:53:24;15.90;;;9.00;;
58878;SDS011;44660;42.664;23.266;2023-03-21T08:55:50;17.40;;;7.47;;
58878;SDS011;44660;42.664;23.266;2023-03-21T08:58:16;11.43;;;7.25;;
58878;SDS011;44660;42.664;23.266;2023-03-21T09:00:42;15.25;;;7.72;;
58878;SDS011;44660;42.664;23.266;2023-03-21T09:03:07;14.50;;;6.95;;
58878;SDS011;44660;42.664;23.266;2023-03-21T09:05:33;11.63;;;7.22;;
58878;SDS011;44660;42.664;23.266;2023-03-21T09:08:00;16.10;;;8.02;;
58878;SDS011;44660;42.664;23.266;2023-03-21T09:10:27;14.38;;;7.93;;
58878;SDS011;44660;42.664;23.266;2023-03-21T09:12:53;16.15;;;8.02;;
58878;SDS011;44660;42.664;23.266;2023-03-21T09:15:20;11.02;;;6.95;;
58878;SDS011;44660;42.664;23.266;2023-03-21T09:17:51;16.52;;;8.43;;
58878;SDS011;44660;42.664;23.266;2023-03-21T09:20:19;17.63;;;10.07;;
58878;SDS011;44660;42.664;23.266;2023-03-21T09:22:50;27.33;;;13.60;;
58878;SDS011;44660;42.664;23.266;2023-03-21T09:25:18;24.85;;;12.93;;
58878;SDS011;44660;42.664;23.266;2023-03-21T09:27:45;27.05;;;12.88;;
58878;SDS011;44660;42.664;23.266;2023-03-21T09:30:11;15.90;;;10.23;;
58878;SDS011;44660;42.664;23.266;2023-03-21T09:32:37;14.98;;;9.63;;
58878;SDS011;44660;42.664;23.266;2023-03-21T09:35:04;17.02;;;9.82;;
58878;SDS011;44660;42.664;23.266;2023-03-21T09:37:31;18.77;;;9.65;;
58878;SDS011;44660;42.664;23.266;2023-03-21T09:39:57;19.42;;;9.98;;
58878;SDS011;44660;42.664;23.266;2023-03-21T09:42:28;22.52;;;10.00;;
58878;SDS011;44660;42.664;23.266;2023-03-21T09:47:54;27.38;;;13.95;;
58878;SDS011;44660;42.664;23.266;2023-03-21T09:50:31;19.85;;;11.15;;
58878;SDS011;44660;42.664;23.266;2023-03-21T09:53:09;25.52;;;13.32;;
58878;SDS011;44660;42.664;23.266;2023-03-21T09:55:49;30.00;;;13.88;;
58878;SDS011;44660;42.664;23.266;2023-03-21T10:01:00;26.65;;;13.73;;
58878;SDS011;44660;42.664;23.266;2023-03-21T10:03:34;39.60;;;18.50;;
58878;SDS011;44660;42.664;23.266;2023-03-21T10:06:04;31.58;;;14.07;;
58878;SDS011;44660;42.664;23.266;2023-03-21T10:08:40;25.70;;;12.35;;
58878;SDS011;44660;42.664;23.266;2023-03-21T10:11:19;21.30;;;12.68;;
58878;SDS011;44660;42.664;23.266;2023-03-21T10:14:35;24.70;;;13.27;;
58878;SDS011;44660;42.664;23.266;2023-03-21T10:16:56;59.92;;;25.55;;
58878;SDS011;44660;42.664;23.266;2023-03-21T10:19:28;73.45;;;29.67;;
58878;SDS011;44660;42.664;23.266;2023-03-21T10:21:54;38.33;;;17.23;;
58878;SDS011;44660;42.664;23.266;2023-03-21T10:24:21;33.92;;;14.98;;
58878;SDS011;44660;42.664;23.266;2023-03-21T10:29:17;16.52;;;9.05;;
58878;SDS011;44660;42.664;23.266;2023-03-21T10:31:46;21.75;;;10.50;;
58878;SDS011;44660;42.664;23.266;2023-03-21T10:34:16;29.95;;;14.80;;
58878;SDS011;44660;42.664;23.266;2023-03-21T10:36:55;15.98;;;8.75;;
58878;SDS011;44660;42.664;23.266;2023-03-21T10:39:30;16.98;;;8.68;;
58878;SDS011;44660;42.664;23.266;2023-03-21T10:41:59;13.13;;;7.22;;
58878;SDS011;44660;42.664;23.266;2023-03-21T10:44:32;14.65;;;7.18;;
58878;SDS011;44660;42.664;23.266;2023-03-21T10:47:06;14.35;;;6.45;;
58878;SDS011;44660;42.664;23.266;2023-03-21T10:49:35;13.50;;;6.68;;
58878;SDS011;44660;42.664;23.266;2023-03-21T10:52:02;17.88;;;9.05;;
58878;SDS011;44660;42.664;23.266;2023-03-21T10:54:31;14.90;;;8.23;;
58878;SDS011;44660;42.664;23.266;2023-03-21T10:59:25;16.23;;;10.05;;
58878;SDS011;44660;42.664;23.266;2023-03-21T11:01:57;16.20;;;11.23;;
58878;SDS011;44660;42.664;23.266;2023-03-21T11:04:24;12.70;;;7.80;;
58878;SDS011;44660;42.664;23.266;2023-03-21T11:06:55;15.80;;;7.90;;
58878;SDS011;44660;42.664;23.266;2023-03-21T11:09:24;24.58;;;14.02;;
58878;SDS011;44660;42.664;23.266;2023-03-21T11:11:53;22.20;;;11.80;;
58878;SDS011;44660;42.664;23.266;2023-03-21T11:14:37;13.07;;;8.30;;
58878;SDS011;44660;42.664;23.266;2023-03-21T11:22:18;17.60;;;8.93;;
58878;SDS011;44660;42.664;23.266;2023-03-21T11:24:48;16.92;;;9.52;;
58878;SDS011;44660;42.664;23.266;2023-03-21T11:27:18;17.08;;;10.43;;
58878;SDS011;44660;42.664;23.266;2023-03-21T11:29:45;19.73;;;11.60;;
58878;SDS011;44660;42.664;23.266;2023-03-21T11:37:37;17.77;;;8.70;;
58878;SDS011;44660;42.664;23.266;2023-03-21T11:40:19;21.90;;;8.73;;
58878;SDS011;44660;42.664;23.266;2023-03-21T11:42:49;16.48;;;8.45;;
58878;SDS011;44660;42.664;23.266;2023-03-21T11:45:23;14.77;;;6.30;;
58878;SDS011;44660;42.664;23.266;2023-03-21T11:47:52;13.00;;;6.45;;
58878;SDS011;44660;42.664;23.266;2023-03-21T11:50:22;12.75;;;6.45;;
58878;SDS011;44660;42.664;23.266;2023-03-21T11:52:54;12.13;;;6.07;;
58878;SDS011;44660;42.664;23.266;2023-03-21T12:09:03;10.15;;;6.10;;
58878;SDS011;44660;42.664;23.266;2023-03-21T12:14:15;13.25;;;6.20;;
58878;SDS011;44660;42.664;23.266;2023-03-21T12:25:09;9.45;;;4.53;;
58878;SDS011;44660;42.664;23.266;2023-03-21T12:27:52;9.80;;;5.35;;
58878;SDS011;44660;42.664;23.266;2023-03-21T12:30:47;10.48;;;4.78;;
58878;SDS011;44660;42.664;23.266;2023-03-21T12:41:13;8.55;;;4.63;;
58878;SDS011;44660;42.664;23.266;2023-03-21T12:43:51;8.50;;;4.82;;
58878;SDS011;44660;42.664;23.266;2023-03-21T12:46:23;16.00;;;9.00;;
58878;SDS011;44660;42.664;23.266;2023-03-21T12:48:58;21.10;;;12.32;;
58878;SDS011;44660;42.664;23.266;2023-03-21T12:51:30;13.43;;;7.78;;
58878;SDS011;44660;42.664;23.266;2023-03-21T12:56:34;25.08;;;8.75;;
58878;SDS011;44660;42.664;23.266;2023-03-21T13:01:55;9.43;;;4.72;;
58878;SDS011;44660;42.664;23.266;2023-03-21T13:07:00;10.93;;;4.90;;
58878;SDS011;44660;42.664;23.266;2023-03-21T13:09:37;8.60;;;5.00;;
58878;SDS011;44660;42.664;23.266;2023-03-21T13:12:27;7.18;;;4.18;;
58878;SDS011;44660;42.664;23.266;2023-03-21T13:17:44;8.63;;;4.25;;
58878;SDS011;44660;42.664;23.266;2023-03-21T13:22:53;15.95;;;5.13;;
58878;SDS011;44660;42.664;23.266;2023-03-21T13:25:22;15.95;;;5.57;;
58878;SDS011;44660;42.664;23.266;2023-03-21T13:28:03;16.48;;;5.72;;
58878;SDS011;44660;42.664;23.266;2023-03-21T13:30:29;20.73;;;5.85;;
58878;SDS011;44660;42.664;23.266;2023-03-21T13:33:06;9.55;;;5.13;;
58878;SDS011;44660;42.664;23.266;2023-03-21T13:35:36;7.53;;;4.45;;
58878;SDS011;44660;42.664;23.266;2023-03-21T13:38:13;8.80;;;5.07;;
58878;SDS011;44660;42.664;23.266;2023-03-21T13:40:49;8.80;;;4.88;;
58878;SDS011;44660;42.664;23.266;2023-03-21T13:46:33;11.25;;;4.93;;
58878;SDS011;44660;42.664;23.266;2023-03-21T13:49:01;8.65;;;4.70;;
58878;SDS011;44660;42.664;23.266;2023-03-21T13:51:51;6.25;;;4.88;;
58878;SDS011;44660;42.664;23.266;2023-03-21T13:54:22;9.90;;;4.68;;
58878;SDS011;44660;42.664;23.266;2023-03-21T13:56:57;9.95;;;4.85;;
58878;SDS011;44660;42.664;23.266;2023-03-21T14:04:36;9.80;;;5.20;;
58878;SDS011;44660;42.664;23.266;2023-03-21T14:07:05;10.75;;;4.80;;
58878;SDS011;44660;42.664;23.266;2023-03-21T14:12:04;11.60;;;4.72;;
58878;SDS011;44660;42.664;23.266;2023-03-21T14:14:43;14.63;;;5.35;;
58878;SDS011;44660;42.664;23.266;2023-03-21T14:17:14;8.85;;;4.93;;
58878;SDS011;44660;42.664;23.266;2023-03-21T14:19:50;8.57;;;4.93;;
58878;SDS011;44660;42.664;23.266;2023-03-21T14:22:17;15.27;;;5.05;;
58878;SDS011;44660;42.664;23.266;2023-03-21T14:24:46;10.55;;;5.18;;
58878;SDS011;44660;42.664;23.266;2023-03-21T14:27:13;9.93;;;4.78;;
58878;SDS011;44660;42.664;23.266;2023-03-21T14:29:38;11.75;;;5.30;;
58878;SDS011;44660;42.664;23.266;2023-03-21T14:32:05;10.45;;;5.45;;
58878;SDS011;44660;42.664;23.266;2023-03-21T14:34:40;16.20;;;5.90;;
58878;SDS011;44660;42.664;23.266;2023-03-21T14:37:09;10.52;;;5.30;;
58878;SDS011;44660;42.664;23.266;2023-03-21T14:39:35;14.02;;;5.57;;
58878;SDS011;44660;42.664;23.266;2023-03-21T14:42:04;8.82;;;5.28;;
58878;SDS011;44660;42.664;23.266;2023-03-21T14:47:19;9.93;;;5.65;;
58878;SDS011;44660;42.664;23.266;2023-03-21T14:49:48;10.77;;;4.97;;
58878;SDS011;44660;42.664;23.266;2023-03-21T14:52:19;12.38;;;4.82;;
58878;SDS011;44660;42.664;23.266;2023-03-21T14:54:48;10.20;;;5.97;;
58878;SDS011;44660;42.664;23.266;2023-03-21T14:57:17;11.38;;;5.80;;
58878;SDS011;44660;42.664;23.266;2023-03-21T14:59:46;9.95;;;4.90;;
58878;SDS011;44660;42.664;23.266;2023-03-21T15:02:16;8.25;;;5.30;;
58878;SDS011;44660;42.664;23.266;2023-03-21T15:04:48;10.57;;;5.30;;
58878;SDS011;44660;42.664;23.266;2023-03-21T15:07:25;7.63;;;5.10;;
58878;SDS011;44660;42.664;23.266;2023-03-21T15:09:57;10.10;;;5.82;;
58878;SDS011;44660;42.664;23.266;2023-03-21T15:12:27;11.65;;;7.43;;
58878;SDS011;44660;42.664;23.266;2023-03-21T15:14:52;9.38;;;6.80;;
58878;SDS011;44660;42.664;23.266;2023-03-21T15:17:18;9.07;;;6.88;;
58878;SDS011;44660;42.664;23.266;2023-03-21T15:19:44;10.82;;;6.35;;
58878;SDS011;44660;42.664;23.266;2023-03-21T15:22:30;10.68;;;6.57;;
58878;SDS011;44660;42.664;23.266;2023-03-21T15:24:59;11.32;;;6.90;;
58878;SDS011;44660;42.664;23.266;2023-03-21T15:27:29;11.38;;;6.47;;
58878;SDS011;44660;42.664;23.266;2023-03-21T15:29:59;9.13;;;6.15;;
58878;SDS011;44660;42.664;23.266;2023-03-21T15:32:25;9.88;;;6.40;;
58878;SDS011;44660;42.664;23.266;2023-03-21T15:34:52;17.83;;;9.75;;
58878;SDS011;44660;42.664;23.266;2023-03-21T15:37:25;17.75;;;8.55;;
58878;SDS011;44660;42.664;23.266;2023-03-21T15:39:51;9.80;;;6.55;;
58878;SDS011;44660;42.664;23.266;2023-03-21T15:42:29;12.40;;;6.95;;
58878;SDS011;44660;42.664;23.266;2023-03-21T15:45:00;12.02;;;7.50;;
58878;SDS011;44660;42.664;23.266;2023-03-21T15:47:41;11.95;;;7.15;;
58878;SDS011;44660;42.664;23.266;2023-03-21T15:50:32;8.80;;;6.40;;
58878;SDS011;44660;42.664;23.266;2023-03-21T15:53:02;11.27;;;7.07;;
58878;SDS011;44660;42.664;23.266;2023-03-21T15:55:44;8.48;;;6.22;;
58878;SDS011;44660;42.664;23.266;2023-03-21T15:58:18;9.40;;;6.53;;
58878;SDS011;44660;42.664;23.266;2023-03-21T16:00:48;12.10;;;8.13;;
58878;SDS011;44660;42.664;23.266;2023-03-21T16:06:02;22.23;;;12.02;;
58878;SDS011;44660;42.664;23.266;2023-03-21T16:08:34;20.40;;;10.85;;
58878;SDS011;44660;42.664;23.266;2023-03-21T16:11:36;22.88;;;11.82;;
58878;SDS011;44660;42.664;23.266;2023-03-21T16:13:53;22.42;;;12.18;;
58878;SDS011;44660;42.664;23.266;2023-03-21T16:16:22;20.77;;;12.48;;
58878;SDS011;44660;42.664;23.266;2023-03-21T16:18:52;26.67;;;14.32;;
58878;SDS011;44660;42.664;23.266;2023-03-21T16:21:19;23.23;;;14.93;;
58878;SDS011;44660;42.664;23.266;2023-03-21T16:23:48;24.00;;;14.13;;
58878;SDS011;44660;42.664;23.266;2023-03-21T16:26:15;38.00;;;24.17;;
58878;SDS011;44660;42.664;23.266;2023-03-21T16:28:42;35.50;;;22.58;;
58878;SDS011;44660;42.664;23.266;2023-03-21T16:31:13;31.20;;;19.42;;
58878;SDS011;44660;42.664;23.266;2023-03-21T16:33:40;22.02;;;13.90;;
58878;SDS011;44660;42.664;23.266;2023-03-21T16:36:23;21.98;;;14.07;;